Bethel Park, PA (15102)

10:25 AM EDT on August 25, 2016 (GMT -0400)
eastview | | Change Station

Elev 1086 ft 40.33 °N, 80.04 °W | Updated 25 seconds ago

Overcast
Overcast
76.6 °F
Feels Like 78 °F
N
4.3
Wind Variable Wind from WNW
Gusts 5.0 mph

Today
High -- | Low -- °F
--% Chance of Precip.
Yesterday
High -- | Low -- °F
Precip. -- in
Pressure 30.08 in
Visibility 10.0 miles
Clouds Mostly Cloudy 900 ft
Mostly Cloudy 1500 ft
Overcast 2200 ft
Heat Index 78 °F
Dew Point 72 °F
Humidity 87%
Rainfall 0.13 in
Snow Depth Not available.
6:41 AM 8:02 PM
Last Quarter, 45% visible
METAR KAGC 251353Z 22011KT 10SM BKN009 BKN015 OVC022 24/21 A3010 RMK AO2 SLP186 T02440206
Pressure 30.08 in
Visibility 10.0 miles
Clouds Mostly Cloudy 900 ft
Mostly Cloudy 1500 ft
Overcast 2200 ft
Heat Index 78 °F
Dew Point 72 °F
Humidity 87%
Rainfall 0.13 in
Snow Depth Not available.
6:41 AM 8:02 PM
Last Quarter, 45% visible
METAR KAGC 251353Z 22011KT 10SM BKN009 BKN015 OVC022 24/21 A3010 RMK AO2 SLP186 T02440206

10-Day Weather Forecast

Almanac

Astronomy

Aug. 25, 2016 Rise Set
Actual Time
Civil Twilight
Nautical Twilight
Astronomical Twilight
Moon
Length of Visible Light
Length of Day
Tomorrow will be .
, % of the Moon is Illuminated

Today's Extremes

State Highs State Lows

Community

WunderPhotos

Upload Photos

1,934,848 photos uploaded!

WunderBlog® & News

Nearby

Air Quality

  Air Quality AQ Index Pollutant
Not available.

Snow Depth

Station Depth Elevation

Earthquake Activity

City Distance Mag. Time & Date
Minimum magnitude displayed is 2.5.

Coastal Water Temperatures

Place Temperature

Stations

Nearby Weather Stations

Station Location Temp. Windchill Dew Point Humidity Wind Precip. Elev Updated Type
                   

Watches & Warnings

There are currently no watches in effect.